sensor_id;sensor_type;location;lat;lon;timestamp;P1;durP1;ratioP1;P2;durP2;ratioP2
11113;SDS011;5610;52.154;9.198;2024-03-02T00:02:17;18.87;;;13.97;;
11113;SDS011;5610;52.154;9.198;2024-03-02T00:05:04;12.60;;;11.43;;
11113;SDS011;5610;52.154;9.198;2024-03-02T00:07:52;12.57;;;11.33;;
11113;SDS011;5610;52.154;9.198;2024-03-02T00:10:39;12.53;;;11.10;;
11113;SDS011;5610;52.154;9.198;2024-03-02T00:13:24;13.47;;;12.13;;
11113;SDS011;5610;52.154;9.198;2024-03-02T00:16:10;13.03;;;11.73;;
11113;SDS011;5610;52.154;9.198;2024-03-02T00:19:00;13.60;;;12.13;;
11113;SDS011;5610;52.154;9.198;2024-03-02T00:21:48;12.83;;;11.53;;
11113;SDS011;5610;52.154;9.198;2024-03-02T00:24:33;13.00;;;11.60;;
11113;SDS011;5610;52.154;9.198;2024-03-02T00:27:19;13.00;;;11.60;;
11113;SDS011;5610;52.154;9.198;2024-03-02T00:30:06;13.07;;;11.83;;
11113;SDS011;5610;52.154;9.198;2024-03-02T00:33:22;13.47;;;12.10;;
11113;SDS011;5610;52.154;9.198;2024-03-02T00:36:09;12.47;;;11.27;;
11113;SDS011;5610;52.154;9.198;2024-03-02T00:38:56;12.73;;;11.53;;
11113;SDS011;5610;52.154;9.198;2024-03-02T00:41:41;13.70;;;12.17;;
11113;SDS011;5610;52.154;9.198;2024-03-02T00:44:27;12.37;;;11.17;;
11113;SDS011;5610;52.154;9.198;2024-03-02T00:47:14;11.90;;;10.70;;
11113;SDS011;5610;52.154;9.198;2024-03-02T00:49:59;12.70;;;11.40;;
11113;SDS011;5610;52.154;9.198;2024-03-02T00:52:45;13.30;;;11.97;;
11113;SDS011;5610;52.154;9.198;2024-03-02T00:55:33;12.40;;;11.20;;
11113;SDS011;5610;52.154;9.198;2024-03-02T00:58:20;11.33;;;10.20;;
11113;SDS011;5610;52.154;9.198;2024-03-02T01:01:06;11.63;;;10.47;;
11113;SDS011;5610;52.154;9.198;2024-03-02T01:03:52;10.87;;;9.77;;
11113;SDS011;5610;52.154;9.198;2024-03-02T01:06:37;11.87;;;10.67;;
11113;SDS011;5610;52.154;9.198;2024-03-02T01:09:22;11.13;;;10.03;;
11113;SDS011;5610;52.154;9.198;2024-03-02T01:12:09;11.73;;;10.53;;
11113;SDS011;5610;52.154;9.198;2024-03-02T01:14:54;10.97;;;9.87;;
11113;SDS011;5610;52.154;9.198;2024-03-02T01:17:40;10.47;;;9.47;;
11113;SDS011;5610;52.154;9.198;2024-03-02T01:20:25;10.90;;;9.80;;
11113;SDS011;5610;52.154;9.198;2024-03-02T01:23:10;12.80;;;10.53;;
11113;SDS011;5610;52.154;9.198;2024-03-02T01:25:56;11.07;;;9.97;;
11113;SDS011;5610;52.154;9.198;2024-03-02T01:28:44;10.93;;;9.83;;
11113;SDS011;5610;52.154;9.198;2024-03-02T01:31:29;10.97;;;9.90;;
11113;SDS011;5610;52.154;9.198;2024-03-02T01:34:14;11.60;;;10.40;;
11113;SDS011;5610;52.154;9.198;2024-03-02T01:37:00;11.70;;;10.50;;
11113;SDS011;5610;52.154;9.198;2024-03-02T01:39:45;12.53;;;11.23;;
11113;SDS011;5610;52.154;9.198;2024-03-02T01:42:30;12.80;;;11.30;;
11113;SDS011;5610;52.154;9.198;2024-03-02T01:45:17;11.83;;;10.40;;
11113;SDS011;5610;52.154;9.198;2024-03-02T01:48:03;12.37;;;11.07;;
11113;SDS011;5610;52.154;9.198;2024-03-02T01:50:49;11.80;;;10.70;;
11113;SDS011;5610;52.154;9.198;2024-03-02T01:53:35;12.70;;;10.67;;
11113;SDS011;5610;52.154;9.198;2024-03-02T01:56:20;12.37;;;11.17;;
11113;SDS011;5610;52.154;9.198;2024-03-02T01:59:05;13.13;;;11.83;;
11113;SDS011;5610;52.154;9.198;2024-03-02T02:01:52;13.70;;;12.20;;
11113;SDS011;5610;52.154;9.198;2024-03-02T02:04:37;12.67;;;11.10;;
11113;SDS011;5610;52.154;9.198;2024-03-02T02:07:23;15.77;;;12.77;;
11113;SDS011;5610;52.154;9.198;2024-03-02T02:10:09;13.93;;;12.40;;
11113;SDS011;5610;52.154;9.198;2024-03-02T02:12:55;13.20;;;11.90;;
11113;SDS011;5610;52.154;9.198;2024-03-02T02:15:40;14.73;;;12.83;;
11113;SDS011;5610;52.154;9.198;2024-03-02T02:18:27;14.13;;;12.70;;
11113;SDS011;5610;52.154;9.198;2024-03-02T02:21:12;13.40;;;12.00;;
11113;SDS011;5610;52.154;9.198;2024-03-02T02:23:59;13.50;;;12.10;;
11113;SDS011;5610;52.154;9.198;2024-03-02T02:26:46;13.30;;;11.90;;
11113;SDS011;5610;52.154;9.198;2024-03-02T02:29:31;13.80;;;12.37;;
11113;SDS011;5610;52.154;9.198;2024-03-02T02:32:16;13.20;;;11.90;;
11113;SDS011;5610;52.154;9.198;2024-03-02T02:35:01;13.93;;;12.53;;
11113;SDS011;5610;52.154;9.198;2024-03-02T02:37:47;14.87;;;13.40;;
11113;SDS011;5610;52.154;9.198;2024-03-02T02:40:35;14.50;;;12.37;;
11113;SDS011;5610;52.154;9.198;2024-03-02T02:43:20;15.00;;;13.40;;
11113;SDS011;5610;52.154;9.198;2024-03-02T02:46:06;14.10;;;12.70;;
11113;SDS011;5610;52.154;9.198;2024-03-02T02:48:51;13.80;;;12.20;;
11113;SDS011;5610;52.154;9.198;2024-03-02T02:51:37;14.57;;;13.07;;
11113;SDS011;5610;52.154;9.198;2024-03-02T02:54:22;13.93;;;12.57;;
11113;SDS011;5610;52.154;9.198;2024-03-02T02:57:09;13.67;;;12.27;;
11113;SDS011;5610;52.154;9.198;2024-03-02T02:59:54;14.57;;;13.07;;
11113;SDS011;5610;52.154;9.198;2024-03-02T03:02:39;14.37;;;12.60;;
11113;SDS011;5610;52.154;9.198;2024-03-02T03:05:25;14.37;;;12.90;;
11113;SDS011;5610;52.154;9.198;2024-03-02T03:08:10;14.73;;;13.23;;
11113;SDS011;5610;52.154;9.198;2024-03-02T03:10:56;15.00;;;13.50;;
11113;SDS011;5610;52.154;9.198;2024-03-02T03:13:42;13.97;;;12.50;;
11113;SDS011;5610;52.154;9.198;2024-03-02T03:16:28;13.73;;;12.20;;
11113;SDS011;5610;52.154;9.198;2024-03-02T03:19:13;14.87;;;13.40;;
11113;SDS011;5610;52.154;9.198;2024-03-02T03:21:58;14.93;;;13.07;;
11113;SDS011;5610;52.154;9.198;2024-03-02T03:24:44;13.67;;;12.13;;
11113;SDS011;5610;52.154;9.198;2024-03-02T03:27:29;14.57;;;12.77;;
11113;SDS011;5610;52.154;9.198;2024-03-02T03:30:16;12.43;;;11.13;;
11113;SDS011;5610;52.154;9.198;2024-03-02T03:33:01;13.50;;;12.10;;
11113;SDS011;5610;52.154;9.198;2024-03-02T03:35:46;14.57;;;13.07;;
11113;SDS011;5610;52.154;9.198;2024-03-02T03:38:32;14.20;;;12.80;;
11113;SDS011;5610;52.154;9.198;2024-03-02T03:41:17;17.47;;;13.87;;
11113;SDS011;5610;52.154;9.198;2024-03-02T03:44:02;14.03;;;12.60;;
11113;SDS011;5610;52.154;9.198;2024-03-02T03:46:49;14.57;;;13.10;;
11113;SDS011;5610;52.154;9.198;2024-03-02T03:49:34;14.23;;;12.73;;
11113;SDS011;5610;52.154;9.198;2024-03-02T03:52:19;14.17;;;12.77;;
11113;SDS011;5610;52.154;9.198;2024-03-02T03:55:05;15.20;;;12.87;;
11113;SDS011;5610;52.154;9.198;2024-03-02T03:57:50;14.50;;;13.00;;
11113;SDS011;5610;52.154;9.198;2024-03-02T04:00:36;15.10;;;13.70;;
11113;SDS011;5610;52.154;9.198;2024-03-02T04:03:22;15.00;;;13.40;;
11113;SDS011;5610;52.154;9.198;2024-03-02T04:06:07;15.47;;;13.87;;
11113;SDS011;5610;52.154;9.198;2024-03-02T04:08:52;15.53;;;13.80;;
11113;SDS011;5610;52.154;9.198;2024-03-02T04:11:37;16.00;;;14.40;;
11113;SDS011;5610;52.154;9.198;2024-03-02T04:14:22;18.20;;;15.27;;
11113;SDS011;5610;52.154;9.198;2024-03-02T04:17:07;15.63;;;14.03;;
11113;SDS011;5610;52.154;9.198;2024-03-02T04:19:55;17.00;;;15.20;;
11113;SDS011;5610;52.154;9.198;2024-03-02T04:22:40;18.50;;;16.40;;
11113;SDS011;5610;52.154;9.198;2024-03-02T04:25:25;21.33;;;16.43;;
11113;SDS011;5610;52.154;9.198;2024-03-02T04:28:11;19.07;;;16.00;;
11113;SDS011;5610;52.154;9.198;2024-03-02T04:30:56;18.33;;;16.20;;
11113;SDS011;5610;52.154;9.198;2024-03-02T04:33:41;19.53;;;17.20;;
11113;SDS011;5610;52.154;9.198;2024-03-02T04:36:27;21.70;;;17.20;;
11113;SDS011;5610;52.154;9.198;2024-03-02T04:39:13;19.63;;;17.17;;
11113;SDS011;5610;52.154;9.198;2024-03-02T04:41:58;21.47;;;18.70;;
11113;SDS011;5610;52.154;9.198;2024-03-02T04:44:44;21.17;;;16.50;;
11113;SDS011;5610;52.154;9.198;2024-03-02T04:47:29;19.33;;;16.80;;
11113;SDS011;5610;52.154;9.198;2024-03-02T04:50:14;20.93;;;16.07;;
11113;SDS011;5610;52.154;9.198;2024-03-02T04:53:00;21.57;;;17.03;;
11113;SDS011;5610;52.154;9.198;2024-03-02T04:55:46;22.80;;;18.23;;
11113;SDS011;5610;52.154;9.198;2024-03-02T04:59:03;18.43;;;16.47;;
11113;SDS011;5610;52.154;9.198;2024-03-02T05:01:48;18.77;;;16.10;;
11113;SDS011;5610;52.154;9.198;2024-03-02T05:04:33;23.43;;;18.83;;
11113;SDS011;5610;52.154;9.198;2024-03-02T05:07:19;20.00;;;16.77;;
11113;SDS011;5610;52.154;9.198;2024-03-02T05:10:06;21.47;;;16.90;;
11113;SDS011;5610;52.154;9.198;2024-03-02T05:12:51;20.67;;;16.40;;
11113;SDS011;5610;52.154;9.198;2024-03-02T05:15:42;18.53;;;16.40;;
11113;SDS011;5610;52.154;9.198;2024-03-02T05:18:28;21.63;;;16.83;;
11113;SDS011;5610;52.154;9.198;2024-03-02T05:21:13;25.73;;;17.30;;
11113;SDS011;5610;52.154;9.198;2024-03-02T05:23:58;22.20;;;17.87;;
11113;SDS011;5610;52.154;9.198;2024-03-02T05:26:45;20.57;;;18.37;;
11113;SDS011;5610;52.154;9.198;2024-03-02T05:29:30;21.53;;;18.03;;
11113;SDS011;5610;52.154;9.198;2024-03-02T05:32:15;19.83;;;17.70;;
11113;SDS011;5610;52.154;9.198;2024-03-02T05:35:00;18.40;;;16.50;;
11113;SDS011;5610;52.154;9.198;2024-03-02T05:37:46;20.70;;;17.40;;
11113;SDS011;5610;52.154;9.198;2024-03-02T05:40:31;18.70;;;16.40;;
11113;SDS011;5610;52.154;9.198;2024-03-02T05:43:18;16.93;;;15.07;;
11113;SDS011;5610;52.154;9.198;2024-03-02T05:46:04;19.47;;;17.40;;
11113;SDS011;5610;52.154;9.198;2024-03-02T05:48:49;20.27;;;16.97;;
11113;SDS011;5610;52.154;9.198;2024-03-02T05:51:34;23.37;;;18.50;;
11113;SDS011;5610;52.154;9.198;2024-03-02T05:54:19;18.77;;;16.10;;
11113;SDS011;5610;52.154;9.198;2024-03-02T05:57:04;20.10;;;16.97;;
11113;SDS011;5610;52.154;9.198;2024-03-02T06:00:12;19.90;;;17.03;;
11113;SDS011;5610;52.154;9.198;2024-03-02T06:03:00;20.53;;;17.67;;
11113;SDS011;5610;52.154;9.198;2024-03-02T06:05:45;24.20;;;18.23;;
11113;SDS011;5610;52.154;9.198;2024-03-02T06:08:32;25.30;;;18.00;;
11113;SDS011;5610;52.154;9.198;2024-03-02T06:11:19;25.67;;;20.93;;
11113;SDS011;5610;52.154;9.198;2024-03-02T06:14:04;30.07;;;21.93;;
11113;SDS011;5610;52.154;9.198;2024-03-02T06:16:51;23.27;;;19.17;;
11113;SDS011;5610;52.154;9.198;2024-03-02T06:19:36;26.10;;;20.33;;
11113;SDS011;5610;52.154;9.198;2024-03-02T06:22:21;26.97;;;20.73;;
11113;SDS011;5610;52.154;9.198;2024-03-02T06:25:08;23.17;;;19.37;;
11113;SDS011;5610;52.154;9.198;2024-03-02T06:27:53;25.67;;;21.47;;
11113;SDS011;5610;52.154;9.198;2024-03-02T06:30:38;25.50;;;20.00;;
11113;SDS011;5610;52.154;9.198;2024-03-02T06:33:25;23.00;;;19.50;;
11113;SDS011;5610;52.154;9.198;2024-03-02T06:36:10;23.73;;;18.67;;
11113;SDS011;5610;52.154;9.198;2024-03-02T06:38:55;23.33;;;18.73;;
11113;SDS011;5610;52.154;9.198;2024-03-02T06:41:40;24.63;;;19.50;;
11113;SDS011;5610;52.154;9.198;2024-03-02T06:44:26;21.83;;;19.37;;
11113;SDS011;5610;52.154;9.198;2024-03-02T06:47:11;24.80;;;20.07;;
11113;SDS011;5610;52.154;9.198;2024-03-02T06:49:57;25.33;;;20.17;;
11113;SDS011;5610;52.154;9.198;2024-03-02T06:52:43;22.23;;;19.17;;
11113;SDS011;5610;52.154;9.198;2024-03-02T06:55:28;24.33;;;20.20;;
11113;SDS011;5610;52.154;9.198;2024-03-02T06:58:13;24.87;;;19.60;;
11113;SDS011;5610;52.154;9.198;2024-03-02T07:01:00;21.47;;;18.87;;
11113;SDS011;5610;52.154;9.198;2024-03-02T07:03:45;23.00;;;19.57;;
11113;SDS011;5610;52.154;9.198;2024-03-02T07:06:32;22.77;;;18.43;;
11113;SDS011;5610;52.154;9.198;2024-03-02T07:09:17;25.93;;;20.00;;
11113;SDS011;5610;52.154;9.198;2024-03-02T07:12:06;21.33;;;17.77;;
11113;SDS011;5610;52.154;9.198;2024-03-02T07:14:52;21.80;;;19.50;;
11113;SDS011;5610;52.154;9.198;2024-03-02T07:17:55;23.33;;;20.17;;
11113;SDS011;5610;52.154;9.198;2024-03-02T07:20:40;24.13;;;19.80;;
11113;SDS011;5610;52.154;9.198;2024-03-02T07:23:27;23.03;;;18.93;;
11113;SDS011;5610;52.154;9.198;2024-03-02T07:26:12;21.53;;;18.30;;
11113;SDS011;5610;52.154;9.198;2024-03-02T07:28:58;22.40;;;18.60;;
11113;SDS011;5610;52.154;9.198;2024-03-02T07:31:43;21.20;;;18.80;;
11113;SDS011;5610;52.154;9.198;2024-03-02T07:34:29;22.47;;;20.07;;
11113;SDS011;5610;52.154;9.198;2024-03-02T07:37:14;25.40;;;19.70;;
11113;SDS011;5610;52.154;9.198;2024-03-02T07:40:01;24.20;;;19.03;;
11113;SDS011;5610;52.154;9.198;2024-03-02T07:42:46;27.63;;;20.27;;
11113;SDS011;5610;52.154;9.198;2024-03-02T07:45:32;23.87;;;19.40;;
11113;SDS011;5610;52.154;9.198;2024-03-02T07:48:17;24.67;;;19.87;;
11113;SDS011;5610;52.154;9.198;2024-03-02T07:51:02;23.03;;;20.27;;
11113;SDS011;5610;52.154;9.198;2024-03-02T07:53:48;23.00;;;19.50;;
11113;SDS011;5610;52.154;9.198;2024-03-02T07:56:34;21.73;;;19.13;;
11113;SDS011;5610;52.154;9.198;2024-03-02T07:59:20;20.50;;;17.60;;
11113;SDS011;5610;52.154;9.198;2024-03-02T08:02:05;18.63;;;15.63;;
11113;SDS011;5610;52.154;9.198;2024-03-02T08:04:51;16.57;;;14.50;;
11113;SDS011;5610;52.154;9.198;2024-03-02T08:07:36;17.37;;;14.90;;
11113;SDS011;5610;52.154;9.198;2024-03-02T08:10:22;18.40;;;14.30;;
11113;SDS011;5610;52.154;9.198;2024-03-02T08:13:09;17.40;;;14.47;;
11113;SDS011;5610;52.154;9.198;2024-03-02T08:15:54;16.37;;;13.67;;
11113;SDS011;5610;52.154;9.198;2024-03-02T08:18:39;17.00;;;14.50;;
11113;SDS011;5610;52.154;9.198;2024-03-02T08:21:24;16.20;;;14.20;;
11113;SDS011;5610;52.154;9.198;2024-03-02T08:24:10;16.77;;;15.00;;
11113;SDS011;5610;52.154;9.198;2024-03-02T08:26:55;17.07;;;13.60;;
11113;SDS011;5610;52.154;9.198;2024-03-02T08:29:42;18.47;;;14.40;;
11113;SDS011;5610;52.154;9.198;2024-03-02T08:32:27;17.00;;;13.87;;
11113;SDS011;5610;52.154;9.198;2024-03-02T08:35:12;17.50;;;14.20;;
11113;SDS011;5610;52.154;9.198;2024-03-02T08:37:58;19.60;;;13.20;;
11113;SDS011;5610;52.154;9.198;2024-03-02T08:40:45;18.87;;;14.17;;
11113;SDS011;5610;52.154;9.198;2024-03-02T08:43:30;16.70;;;14.60;;
11113;SDS011;5610;52.154;9.198;2024-03-02T08:46:17;18.77;;;13.83;;
11113;SDS011;5610;52.154;9.198;2024-03-02T08:49:02;16.60;;;14.90;;
11113;SDS011;5610;52.154;9.198;2024-03-02T08:51:47;18.07;;;15.07;;
11113;SDS011;5610;52.154;9.198;2024-03-02T08:54:38;15.23;;;13.40;;
11113;SDS011;5610;52.154;9.198;2024-03-02T08:57:23;14.57;;;12.87;;
11113;SDS011;5610;52.154;9.198;2024-03-02T09:00:09;15.80;;;12.90;;
11113;SDS011;5610;52.154;9.198;2024-03-02T09:02:56;14.57;;;13.00;;
11113;SDS011;5610;52.154;9.198;2024-03-02T09:05:41;14.47;;;12.93;;
11113;SDS011;5610;52.154;9.198;2024-03-02T09:08:27;14.70;;;12.77;;
11113;SDS011;5610;52.154;9.198;2024-03-02T09:11:12;15.30;;;11.93;;
11113;SDS011;5610;52.154;9.198;2024-03-02T09:13:57;15.33;;;12.53;;
11113;SDS011;5610;52.154;9.198;2024-03-02T09:16:43;13.67;;;11.73;;
11113;SDS011;5610;52.154;9.198;2024-03-02T09:19:29;16.57;;;12.13;;
11113;SDS011;5610;52.154;9.198;2024-03-02T09:22:15;12.23;;;10.90;;
11113;SDS011;5610;52.154;9.198;2024-03-02T09:25:00;12.70;;;10.93;;
11113;SDS011;5610;52.154;9.198;2024-03-02T09:27:45;13.33;;;10.87;;
11113;SDS011;5610;52.154;9.198;2024-03-02T09:30:30;12.30;;;10.87;;
11113;SDS011;5610;52.154;9.198;2024-03-02T09:33:16;10.57;;;9.47;;
11113;SDS011;5610;52.154;9.198;2024-03-02T09:36:02;9.90;;;8.90;;
11113;SDS011;5610;52.154;9.198;2024-03-02T09:38:48;10.03;;;8.57;;
11113;SDS011;5610;52.154;9.198;2024-03-02T09:41:33;10.43;;;8.90;;
11113;SDS011;5610;52.154;9.198;2024-03-02T09:44:19;12.60;;;10.20;;
11113;SDS011;5610;52.154;9.198;2024-03-02T09:47:06;10.20;;;9.17;;
11113;SDS011;5610;52.154;9.198;2024-03-02T09:49:52;11.93;;;8.10;;
11113;SDS011;5610;52.154;9.198;2024-03-02T09:52:40;9.67;;;8.57;;
11113;SDS011;5610;52.154;9.198;2024-03-02T09:55:27;8.63;;;7.83;;
11113;SDS011;5610;52.154;9.198;2024-03-02T09:58:12;9.53;;;8.17;;
11113;SDS011;5610;52.154;9.198;2024-03-02T10:00:58;10.13;;;7.70;;
11113;SDS011;5610;52.154;9.198;2024-03-02T10:03:44;9.10;;;8.23;;
11113;SDS011;5610;52.154;9.198;2024-03-02T10:06:33;9.47;;;8.37;;
11113;SDS011;5610;52.154;9.198;2024-03-02T10:09:27;7.93;;;7.23;;
11113;SDS011;5610;52.154;9.198;2024-03-02T10:12:13;9.80;;;7.93;;
11113;SDS011;5610;52.154;9.198;2024-03-02T10:15:02;8.80;;;7.63;;
11113;SDS011;5610;52.154;9.198;2024-03-02T10:17:51;8.70;;;7.80;;
11113;SDS011;5610;52.154;9.198;2024-03-02T10:20:36;8.97;;;7.50;;
11113;SDS011;5610;52.154;9.198;2024-03-02T10:23:22;9.03;;;7.27;;
11113;SDS011;5610;52.154;9.198;2024-03-02T10:26:11;7.93;;;7.23;;
11113;SDS011;5610;52.154;9.198;2024-03-02T10:29:01;6.10;;;5.50;;
11113;SDS011;5610;52.154;9.198;2024-03-02T10:31:46;7.07;;;6.07;;
11113;SDS011;5610;52.154;9.198;2024-03-02T10:34:33;6.53;;;5.93;;
11113;SDS011;5610;52.154;9.198;2024-03-02T10:37:21;7.17;;;6.50;;
11113;SDS011;5610;52.154;9.198;2024-03-02T10:40:07;6.83;;;6.13;;
11113;SDS011;5610;52.154;9.198;2024-03-02T10:42:56;7.23;;;6.47;;
11113;SDS011;5610;52.154;9.198;2024-03-02T10:45:43;7.20;;;6.37;;
11113;SDS011;5610;52.154;9.198;2024-03-02T10:48:31;6.60;;;5.97;;
11113;SDS011;5610;52.154;9.198;2024-03-02T10:51:20;7.30;;;6.70;;
11113;SDS011;5610;52.154;9.198;2024-03-02T10:54:05;7.13;;;6.50;;
11113;SDS011;5610;52.154;9.198;2024-03-02T10:56:51;7.60;;;6.90;;
11113;SDS011;5610;52.154;9.198;2024-03-02T10:59:42;6.93;;;6.43;;
11113;SDS011;5610;52.154;9.198;2024-03-02T11:02:34;7.40;;;6.80;;
11113;SDS011;5610;52.154;9.198;2024-03-02T11:05:27;7.10;;;6.40;;
11113;SDS011;5610;52.154;9.198;2024-03-02T11:08:13;7.70;;;7.00;;
11113;SDS011;5610;52.154;9.198;2024-03-02T11:11:04;6.90;;;6.20;;
11113;SDS011;5610;52.154;9.198;2024-03-02T11:13:56;6.97;;;6.27;;
11113;SDS011;5610;52.154;9.198;2024-03-02T11:16:53;6.63;;;6.10;;
11113;SDS011;5610;52.154;9.198;2024-03-02T11:19:39;7.00;;;6.40;;
11113;SDS011;5610;52.154;9.198;2024-03-02T11:22:26;6.10;;;5.50;;
11113;SDS011;5610;52.154;9.198;2024-03-02T11:25:22;6.43;;;5.83;;
11113;SDS011;5610;52.154;9.198;2024-03-02T11:28:08;5.97;;;5.37;;
11113;SDS011;5610;52.154;9.198;2024-03-02T11:30:54;6.40;;;5.90;;
11113;SDS011;5610;52.154;9.198;2024-03-02T11:33:40;6.17;;;5.33;;
11113;SDS011;5610;52.154;9.198;2024-03-02T11:36:26;6.50;;;5.90;;
11113;SDS011;5610;52.154;9.198;2024-03-02T11:39:12;6.07;;;5.47;;
11113;SDS011;5610;52.154;9.198;2024-03-02T11:41:57;5.67;;;5.20;;
11113;SDS011;5610;52.154;9.198;2024-03-02T11:44:43;5.20;;;4.80;;
11113;SDS011;5610;52.154;9.198;2024-03-02T11:47:31;5.67;;;5.17;;
11113;SDS011;5610;52.154;9.198;2024-03-02T11:50:23;6.33;;;5.83;;
11113;SDS011;5610;52.154;9.198;2024-03-02T11:53:13;5.80;;;5.30;;
11113;SDS011;5610;52.154;9.198;2024-03-02T11:55:59;5.13;;;4.70;;
11113;SDS011;5610;52.154;9.198;2024-03-02T11:58:45;4.40;;;4.00;;
11113;SDS011;5610;52.154;9.198;2024-03-02T12:01:32;4.23;;;3.93;;
11113;SDS011;5610;52.154;9.198;2024-03-02T12:04:19;4.80;;;4.40;;
11113;SDS011;5610;52.154;9.198;2024-03-02T12:07:06;4.87;;;4.37;;
11113;SDS011;5610;52.154;9.198;2024-03-02T12:09:58;4.60;;;4.30;;
11113;SDS011;5610;52.154;9.198;2024-03-02T12:12:45;4.23;;;3.80;;
11113;SDS011;5610;52.154;9.198;2024-03-02T12:15:31;4.50;;;4.10;;
11113;SDS011;5610;52.154;9.198;2024-03-02T12:18:17;3.53;;;3.23;;
11113;SDS011;5610;52.154;9.198;2024-03-02T12:21:02;3.37;;;3.13;;
11113;SDS011;5610;52.154;9.198;2024-03-02T12:23:51;4.00;;;3.70;;
11113;SDS011;5610;52.154;9.198;2024-03-02T12:26:37;3.70;;;3.40;;
11113;SDS011;5610;52.154;9.198;2024-03-02T12:29:22;3.90;;;3.60;;
11113;SDS011;5610;52.154;9.198;2024-03-02T12:32:08;3.70;;;3.40;;
11113;SDS011;5610;52.154;9.198;2024-03-02T12:34:53;3.97;;;3.57;;
11113;SDS011;5610;52.154;9.198;2024-03-02T12:37:43;4.30;;;3.90;;
11113;SDS011;5610;52.154;9.198;2024-03-02T12:40:30;4.20;;;3.80;;
11113;SDS011;5610;52.154;9.198;2024-03-02T12:43:16;4.30;;;4.00;;
11113;SDS011;5610;52.154;9.198;2024-03-02T12:46:01;4.90;;;4.50;;
11113;SDS011;5610;52.154;9.198;2024-03-02T12:48:47;5.40;;;5.00;;
11113;SDS011;5610;52.154;9.198;2024-03-02T12:51:33;4.23;;;3.20;;
11113;SDS011;5610;52.154;9.198;2024-03-02T12:54:18;4.10;;;3.80;;
11113;SDS011;5610;52.154;9.198;2024-03-02T12:57:08;4.67;;;4.23;;
11113;SDS011;5610;52.154;9.198;2024-03-02T12:59:57;4.60;;;4.20;;
11113;SDS011;5610;52.154;9.198;2024-03-02T13:02:43;4.97;;;4.57;;
11113;SDS011;5610;52.154;9.198;2024-03-02T13:05:29;4.40;;;4.03;;
11113;SDS011;5610;52.154;9.198;2024-03-02T13:08:15;5.20;;;4.70;;
11113;SDS011;5610;52.154;9.198;2024-03-02T13:11:00;5.73;;;5.23;;
11113;SDS011;5610;52.154;9.198;2024-03-02T13:13:47;4.27;;;3.97;;
11113;SDS011;5610;52.154;9.198;2024-03-02T13:16:37;5.17;;;4.80;;
11113;SDS011;5610;52.154;9.198;2024-03-02T13:19:23;5.07;;;4.67;;
11113;SDS011;5610;52.154;9.198;2024-03-02T13:22:08;5.07;;;4.57;;
11113;SDS011;5610;52.154;9.198;2024-03-02T13:24:53;4.37;;;4.00;;
11113;SDS011;5610;52.154;9.198;2024-03-02T13:27:39;5.10;;;4.70;;
11113;SDS011;5610;52.154;9.198;2024-03-02T13:30:25;5.13;;;4.73;;
11113;SDS011;5610;52.154;9.198;2024-03-02T13:33:11;5.17;;;4.77;;
11113;SDS011;5610;52.154;9.198;2024-03-02T13:35:56;4.30;;;4.00;;
11113;SDS011;5610;52.154;9.198;2024-03-02T13:38:41;4.13;;;3.80;;
11113;SDS011;5610;52.154;9.198;2024-03-02T13:41:27;3.80;;;3.50;;
11113;SDS011;5610;52.154;9.198;2024-03-02T13:44:12;4.50;;;4.10;;
11113;SDS011;5610;52.154;9.198;2024-03-02T13:46:59;3.90;;;3.60;;
11113;SDS011;5610;52.154;9.198;2024-03-02T13:49:45;4.73;;;4.33;;
11113;SDS011;5610;52.154;9.198;2024-03-02T13:52:32;3.90;;;3.57;;
11113;SDS011;5610;52.154;9.198;2024-03-02T13:55:19;4.57;;;4.17;;
11113;SDS011;5610;52.154;9.198;2024-03-02T13:58:04;4.40;;;3.40;;
11113;SDS011;5610;52.154;9.198;2024-03-02T14:00:50;4.13;;;3.83;;
11113;SDS011;5610;52.154;9.198;2024-03-02T14:03:37;5.70;;;3.60;;
11113;SDS011;5610;52.154;9.198;2024-03-02T14:06:22;3.70;;;3.40;;
11113;SDS011;5610;52.154;9.198;2024-03-02T14:09:07;4.57;;;4.20;;
11113;SDS011;5610;52.154;9.198;2024-03-02T14:11:53;3.70;;;3.50;;
11113;SDS011;5610;52.154;9.198;2024-03-02T14:14:39;4.30;;;4.00;;
11113;SDS011;5610;52.154;9.198;2024-03-02T14:17:24;4.37;;;4.00;;
11113;SDS011;5610;52.154;9.198;2024-03-02T14:20:11;4.10;;;3.80;;
11113;SDS011;5610;52.154;9.198;2024-03-02T14:22:57;4.40;;;4.10;;
11113;SDS011;5610;52.154;9.198;2024-03-02T14:25:43;3.90;;;3.57;;
11113;SDS011;5610;52.154;9.198;2024-03-02T14:28:28;4.20;;;3.80;;
11113;SDS011;5610;52.154;9.198;2024-03-02T14:31:13;3.93;;;3.63;;
11113;SDS011;5610;52.154;9.198;2024-03-02T14:33:58;2.80;;;2.60;;
11113;SDS011;5610;52.154;9.198;2024-03-02T14:36:45;2.63;;;2.43;;
11113;SDS011;5610;52.154;9.198;2024-03-02T14:39:30;3.00;;;2.60;;
11113;SDS011;5610;52.154;9.198;2024-03-02T14:42:18;2.93;;;2.70;;
11113;SDS011;5610;52.154;9.198;2024-03-02T14:45:03;3.03;;;2.80;;
11113;SDS011;5610;52.154;9.198;2024-03-02T14:47:49;3.20;;;3.00;;
11113;SDS011;5610;52.154;9.198;2024-03-02T14:50:35;3.47;;;2.90;;
11113;SDS011;5610;52.154;9.198;2024-03-02T14:53:22;3.10;;;2.87;;
11113;SDS011;5610;52.154;9.198;2024-03-02T14:56:07;3.33;;;3.07;;
11113;SDS011;5610;52.154;9.198;2024-03-02T14:58:52;2.20;;;2.07;;
11113;SDS011;5610;52.154;9.198;2024-03-02T15:01:37;2.60;;;2.40;;
11113;SDS011;5610;52.154;9.198;2024-03-02T15:04:23;2.70;;;2.50;;
11113;SDS011;5610;52.154;9.198;2024-03-02T15:07:08;2.90;;;2.70;;
11113;SDS011;5610;52.154;9.198;2024-03-02T15:09:54;3.10;;;2.90;;
11113;SDS011;5610;52.154;9.198;2024-03-02T15:12:40;3.27;;;2.97;;
11113;SDS011;5610;52.154;9.198;2024-03-02T15:15:25;3.37;;;3.00;;
11113;SDS011;5610;52.154;9.198;2024-03-02T15:18:10;5.03;;;2.60;;
11113;SDS011;5610;52.154;9.198;2024-03-02T15:20:55;3.37;;;3.07;;
11113;SDS011;5610;52.154;9.198;2024-03-02T15:23:41;2.77;;;2.50;;
11113;SDS011;5610;52.154;9.198;2024-03-02T15:26:27;2.23;;;2.03;;
11113;SDS011;5610;52.154;9.198;2024-03-02T15:29:12;2.67;;;2.40;;
11113;SDS011;5610;52.154;9.198;2024-03-02T15:31:58;2.07;;;1.97;;
11113;SDS011;5610;52.154;9.198;2024-03-02T15:34:43;1.63;;;1.53;;
11113;SDS011;5610;52.154;9.198;2024-03-02T15:37:28;2.30;;;1.97;;
11113;SDS011;5610;52.154;9.198;2024-03-02T15:40:14;2.33;;;1.97;;
11113;SDS011;5610;52.154;9.198;2024-03-02T15:43:00;2.47;;;2.27;;
11113;SDS011;5610;52.154;9.198;2024-03-02T15:45:46;2.07;;;1.97;;
11113;SDS011;5610;52.154;9.198;2024-03-02T15:48:31;3.70;;;1.93;;
11113;SDS011;5610;52.154;9.198;2024-03-02T15:51:17;8.60;;;8.00;;
11113;SDS011;5610;52.154;9.198;2024-03-02T15:54:02;13.00;;;12.00;;
11113;SDS011;5610;52.154;9.198;2024-03-02T15:56:48;9.50;;;8.80;;
11113;SDS011;5610;52.154;9.198;2024-03-02T15:59:35;10.57;;;9.87;;
11113;SDS011;5610;52.154;9.198;2024-03-02T16:02:20;8.17;;;7.57;;
11113;SDS011;5610;52.154;9.198;2024-03-02T16:05:05;21.30;;;19.90;;
11113;SDS011;5610;52.154;9.198;2024-03-02T16:07:51;24.90;;;23.20;;
11113;SDS011;5610;52.154;9.198;2024-03-02T16:10:36;25.63;;;23.93;;
11113;SDS011;5610;52.154;9.198;2024-03-02T16:13:21;21.10;;;19.60;;
11113;SDS011;5610;52.154;9.198;2024-03-02T16:16:08;18.40;;;17.10;;
11113;SDS011;5610;52.154;9.198;2024-03-02T16:18:53;16.83;;;15.63;;
11113;SDS011;5610;52.154;9.198;2024-03-02T16:21:38;26.27;;;24.50;;
11113;SDS011;5610;52.154;9.198;2024-03-02T16:24:23;12.83;;;11.63;;
11113;SDS011;5610;52.154;9.198;2024-03-02T16:27:09;9.73;;;8.93;;
11113;SDS011;5610;52.154;9.198;2024-03-02T16:29:54;29.80;;;27.57;;
11113;SDS011;5610;52.154;9.198;2024-03-02T16:32:41;28.57;;;26.13;;
11113;SDS011;5610;52.154;9.198;2024-03-02T16:35:26;14.93;;;13.63;;
11113;SDS011;5610;52.154;9.198;2024-03-02T16:38:11;18.50;;;16.80;;
11113;SDS011;5610;52.154;9.198;2024-03-02T16:40:57;19.10;;;17.33;;